createdAt,value
2022-08-28T00:01:01.402Z,15.36
2022-08-28T00:03:28.596Z,15.28
2022-08-28T00:05:57.322Z,15.23
2022-08-28T00:08:24.805Z,15.22
2022-08-28T00:10:52.644Z,15.22
2022-08-28T00:13:25.211Z,15.20
2022-08-28T00:16:00.985Z,15.22
2022-08-28T00:18:31.275Z,15.24
2022-08-28T00:20:59.031Z,15.25
2022-08-28T00:23:28.416Z,15.26
2022-08-28T00:26:10.195Z,15.24
2022-08-28T00:28:37.217Z,15.08
2022-08-28T00:31:05.262Z,15.18
2022-08-28T00:33:35.191Z,15.14
2022-08-28T00:36:03.544Z,15.10
2022-08-28T00:38:30.603Z,15.07
2022-08-28T00:41:01.798Z,15.08
2022-08-28T00:43:47.859Z,15.07
2022-08-28T00:46:22.313Z,15.08
2022-08-28T00:48:49.991Z,15.01
2022-08-28T00:51:38.681Z,15.02
2022-08-28T00:54:08.265Z,14.87
2022-08-28T00:56:37.421Z,14.88
2022-08-28T00:59:12.267Z,14.83
2022-08-28T01:01:39.695Z,14.74
2022-08-28T01:04:07.401Z,14.76
2022-08-28T01:06:36.275Z,14.74
2022-08-28T01:09:04.716Z,14.70
2022-08-28T01:11:32.567Z,14.64
2022-08-28T01:14:03.065Z,14.59
2022-08-28T01:16:33.691Z,14.66
2022-08-28T01:19:01.749Z,14.61
2022-08-28T01:21:42.998Z,14.56
2022-08-28T01:24:15.348Z,14.59
2022-08-28T01:26:45.588Z,14.52
2022-08-28T01:29:12.875Z,14.56
2022-08-28T01:31:42.037Z,14.52
2022-08-28T01:34:13.112Z,14.43
2022-08-28T01:36:41.763Z,14.46
2022-08-28T01:39:18.727Z,14.46
2022-08-28T01:41:51.340Z,14.48
2022-08-28T01:44:32.493Z,14.41
2022-08-28T01:46:59.883Z,14.44
2022-08-28T01:49:29.352Z,14.38
2022-08-28T01:51:58.098Z,14.37
2022-08-28T01:54:26.988Z,14.42
2022-08-28T01:56:54.941Z,14.44
2022-08-28T01:59:22.574Z,14.46
2022-08-28T02:01:49.812Z,14.42
2022-08-28T02:04:17.308Z,14.40
2022-08-28T02:06:44.478Z,14.33
2022-08-28T02:09:14.442Z,14.39
2022-08-28T02:11:46.421Z,14.42
2022-08-28T02:14:14.209Z,14.43
2022-08-28T02:16:41.257Z,14.41
2022-08-28T02:19:08.259Z,14.39
2022-08-28T02:21:35.567Z,14.37
2022-08-28T02:24:03.292Z,14.32
2022-08-28T02:26:31.664Z,14.35
2022-08-28T02:28:59.029Z,14.36
2022-08-28T02:31:27.372Z,14.45
2022-08-28T02:33:55.847Z,14.44
2022-08-28T02:36:23.284Z,14.44
2022-08-28T02:38:57.546Z,14.39
2022-08-28T02:41:25.863Z,14.32
2022-08-28T02:43:53.251Z,14.34
2022-08-28T02:46:20.307Z,14.34
2022-08-28T02:48:47.269Z,14.35
2022-08-28T02:51:14.669Z,14.32
2022-08-28T02:53:42.772Z,14.35
2022-08-28T02:56:10.369Z,14.37
2022-08-28T02:58:39.250Z,14.35
2022-08-28T03:01:11.004Z,14.46
2022-08-28T03:03:40.990Z,14.44
2022-08-28T03:06:12.164Z,14.49
2022-08-28T03:08:44.799Z,14.51
2022-08-28T03:11:12.200Z,14.50
2022-08-28T03:13:39.350Z,14.45
2022-08-28T03:16:06.942Z,14.52
2022-08-28T03:18:34.202Z,14.53
2022-08-28T03:21:01.609Z,14.42
2022-08-28T03:23:28.703Z,14.49
2022-08-28T03:26:12.597Z,14.52
2022-08-28T03:28:52.413Z,14.49
2022-08-28T03:31:23.912Z,14.56
2022-08-28T03:33:52.291Z,14.56
2022-08-28T03:36:23.932Z,14.56
2022-08-28T03:38:55.022Z,14.47
2022-08-28T03:41:24.848Z,14.58
2022-08-28T03:43:52.259Z,14.52
2022-08-28T03:46:23.662Z,14.57
2022-08-28T03:48:52.074Z,14.58
2022-08-28T03:51:29.797Z,14.57
2022-08-28T03:53:59.341Z,14.58
2022-08-28T03:56:30.032Z,14.54
2022-08-28T03:59:00.527Z,14.56
2022-08-28T04:01:28.023Z,14.51
2022-08-28T04:03:55.788Z,14.51
2022-08-28T04:06:22.993Z,14.57
2022-08-28T04:08:51.039Z,14.58
2022-08-28T04:11:18.553Z,14.56
2022-08-28T04:13:45.628Z,14.63
2022-08-28T04:16:16.692Z,14.65
2022-08-28T04:18:44.546Z,14.60
2022-08-28T04:21:21.520Z,14.68
2022-08-28T04:23:48.750Z,14.63
2022-08-28T04:26:25.054Z,14.69
2022-08-28T04:28:53.626Z,14.68
2022-08-28T04:31:31.923Z,14.64
2022-08-28T04:34:06.710Z,14.65
2022-08-28T04:36:33.996Z,14.65
2022-08-28T04:39:01.632Z,14.62
2022-08-28T04:41:29.753Z,14.60
2022-08-28T04:43:57.771Z,14.62
2022-08-28T04:46:25.435Z,14.62
2022-08-28T04:48:53.318Z,14.61
2022-08-28T04:51:20.530Z,14.65
2022-08-28T04:53:48.031Z,14.73
2022-08-28T04:56:15.652Z,14.77
2022-08-28T04:58:43.971Z,14.79
2022-08-28T05:01:19.085Z,14.70
2022-08-28T05:03:47.898Z,14.85
2022-08-28T05:06:16.547Z,14.77
2022-08-28T05:08:43.777Z,14.76
2022-08-28T05:11:27.325Z,14.76
2022-08-28T05:14:04.631Z,14.79
2022-08-28T05:16:34.471Z,14.81
2022-08-28T05:19:03.038Z,14.85
2022-08-28T05:21:30.001Z,14.88
2022-08-28T05:23:59.116Z,14.82
2022-08-28T05:26:28.445Z,14.83
2022-08-28T05:28:59.353Z,15.00
2022-08-28T05:31:29.246Z,15.02
2022-08-28T05:33:56.373Z,14.94
2022-08-28T05:36:25.293Z,15.05
2022-08-28T05:38:57.295Z,15.10
2022-08-28T05:41:32.688Z,15.10
2022-08-28T05:44:07.166Z,15.10
2022-08-28T05:46:36.703Z,15.12
2022-08-28T05:49:07.776Z,15.09
2022-08-28T05:51:41.008Z,15.25
2022-08-28T05:54:08.655Z,15.24
2022-08-28T05:56:40.517Z,15.32
2022-08-28T05:59:09.322Z,15.32
2022-08-28T06:01:43.992Z,15.37
2022-08-28T06:04:18.731Z,15.43
2022-08-28T06:06:46.180Z,15.49
2022-08-28T06:09:14.395Z,15.55
2022-08-28T06:11:44.806Z,15.64
2022-08-28T06:14:17.974Z,15.76
2022-08-28T06:16:48.364Z,15.90
2022-08-28T06:19:16.989Z,16.01
2022-08-28T06:21:46.751Z,16.05
2022-08-28T06:24:14.405Z,16.16
2022-08-28T06:26:41.642Z,16.41
2022-08-28T06:29:13.463Z,16.68
2022-08-28T06:31:40.887Z,16.69
2022-08-28T06:34:09.360Z,16.89
2022-08-28T06:36:41.901Z,17.26
2022-08-28T06:39:12.224Z,17.35
2022-08-28T06:41:43.158Z,17.35
2022-08-28T06:44:19.719Z,17.51
2022-08-28T06:46:49.189Z,17.66
2022-08-28T06:49:16.261Z,17.79
2022-08-28T06:51:43.782Z,18.00
2022-08-28T06:54:11.144Z,18.15
2022-08-28T06:56:38.607Z,18.38
2022-08-28T06:59:05.884Z,18.65
2022-08-28T07:01:36.725Z,18.80
2022-08-28T07:04:12.221Z,18.78
2022-08-28T07:06:46.833Z,18.90
2022-08-28T07:09:14.793Z,19.17
2022-08-28T07:11:49.037Z,19.42
2022-08-28T07:14:16.283Z,19.55
2022-08-28T07:16:44.379Z,19.58
2022-08-28T07:19:12.832Z,19.46
2022-08-28T07:21:44.547Z,19.48
2022-08-28T07:24:14.623Z,19.73
2022-08-28T07:26:43.587Z,19.84
2022-08-28T07:29:12.305Z,19.80
2022-08-28T07:31:46.070Z,19.89
2022-08-28T07:34:15.005Z,20.01
2022-08-28T07:36:43.386Z,20.03
2022-08-28T07:39:12.748Z,19.93
2022-08-28T07:41:42.743Z,19.88
2022-08-28T07:44:32.370Z,19.95
2022-08-28T07:47:04.150Z,20.08
2022-08-28T07:49:33.749Z,20.19
2022-08-28T07:52:01.006Z,20.37
2022-08-28T07:54:28.046Z,20.63
2022-08-28T07:56:55.426Z,20.69
2022-08-28T07:59:22.481Z,20.76
2022-08-28T08:01:51.815Z,20.84
2022-08-28T08:04:20.620Z,20.82
2022-08-28T08:06:48.782Z,20.90
2022-08-28T08:09:19.097Z,21.11
2022-08-28T08:11:47.505Z,21.27
2022-08-28T08:14:17.508Z,21.44
2022-08-28T08:16:46.503Z,21.55
2022-08-28T08:19:15.304Z,21.66
2022-08-28T08:21:48.488Z,21.68
2022-08-28T08:24:25.758Z,21.49
2022-08-28T08:26:59.496Z,21.30
2022-08-28T08:29:53.328Z,21.26
2022-08-28T08:32:20.317Z,21.31
2022-08-28T08:34:47.329Z,21.31
2022-08-28T08:37:15.075Z,21.57
2022-08-28T08:39:43.272Z,21.81
2022-08-28T08:42:30.689Z,22.09
2022-08-28T08:45:03.273Z,22.30
2022-08-28T08:47:49.133Z,22.43
2022-08-28T08:50:30.716Z,22.47
2022-08-28T08:53:34.396Z,22.45
2022-08-28T08:56:05.505Z,22.47
2022-08-28T08:58:40.184Z,22.70
2022-08-28T09:01:50.813Z,22.90
2022-08-28T09:04:55.959Z,22.66
2022-08-28T09:07:50.248Z,22.43
2022-08-28T09:10:19.896Z,22.49
2022-08-28T09:13:18.094Z,22.61
2022-08-28T09:15:50.521Z,22.79
2022-08-28T09:18:25.875Z,23.03
2022-08-28T09:20:56.683Z,23.16
2022-08-28T09:23:26.114Z,23.15
2022-08-28T09:26:03.645Z,22.91
2022-08-28T09:28:36.859Z,22.72
2022-08-28T09:31:19.520Z,22.55
2022-08-28T09:33:51.266Z,22.74
2022-08-28T09:36:36.384Z,23.19
2022-08-28T09:39:10.379Z,23.33
2022-08-28T09:42:27.813Z,23.30
2022-08-28T09:45:00.984Z,23.09
2022-08-28T09:47:58.499Z,23.04
2022-08-28T09:50:36.758Z,22.89
2022-08-28T09:53:22.403Z,22.87
2022-08-28T09:55:59.800Z,23.05
2022-08-28T09:58:41.814Z,23.16
2022-08-28T10:01:27.249Z,23.23
2022-08-28T10:04:15.802Z,23.11
2022-08-28T10:06:52.975Z,22.97
2022-08-28T10:09:54.783Z,22.89
2022-08-28T10:12:53.264Z,22.97
2022-08-28T10:15:55.175Z,23.15
2022-08-28T10:18:49.186Z,23.48
2022-08-28T10:21:26.539Z,23.87
2022-08-28T10:24:27.139Z,24.20
2022-08-28T10:27:03.049Z,23.91
2022-08-28T10:30:13.140Z,23.90
2022-08-28T10:33:17.792Z,23.86
2022-08-28T10:36:34.697Z,23.74
2022-08-28T10:39:39.781Z,23.53
2022-08-28T10:42:07.581Z,23.59
2022-08-28T10:44:54.658Z,23.78
2022-08-28T10:47:23.768Z,24.15
2022-08-28T10:50:01.741Z,24.42
2022-08-28T10:52:54.048Z,24.52
2022-08-28T10:55:32.394Z,24.15
2022-08-28T10:58:24.165Z,23.84
2022-08-28T11:01:01.338Z,23.74
2022-08-28T11:03:34.776Z,23.75
2022-08-28T11:06:11.435Z,23.89
2022-08-28T11:08:39.847Z,24.01
2022-08-28T11:11:14.383Z,24.13
2022-08-28T11:14:00.048Z,24.14
2022-08-28T11:16:30.314Z,24.17
2022-08-28T11:19:06.088Z,24.05
2022-08-28T11:21:44.876Z,23.92
2022-08-28T11:24:44.111Z,23.86
2022-08-28T11:27:33.098Z,24.01
2022-08-28T11:30:11.691Z,24.31
2022-08-28T11:32:51.895Z,24.69
2022-08-28T11:35:41.778Z,25.13
2022-08-28T11:38:09.887Z,25.53
2022-08-28T11:40:40.693Z,25.65
2022-08-28T11:43:16.696Z,25.76
2022-08-28T11:45:45.802Z,25.93
2022-08-28T11:48:25.962Z,26.05
2022-08-28T11:51:40.877Z,26.04
2022-08-28T11:54:22.652Z,26.17
2022-08-28T11:57:05.472Z,26.25
2022-08-28T12:00:03.335Z,26.26
2022-08-28T12:02:40.033Z,26.21
2022-08-28T12:05:16.000Z,26.40
2022-08-28T12:07:47.034Z,26.64
2022-08-28T12:10:22.913Z,26.80
2022-08-28T12:13:02.059Z,26.78
2022-08-28T12:15:29.589Z,26.90
2022-08-28T12:18:42.651Z,26.64
2022-08-28T12:21:23.275Z,26.33
2022-08-28T12:24:24.345Z,26.12
2022-08-28T12:26:54.726Z,25.87
2022-08-28T12:29:43.663Z,25.68
2022-08-28T12:32:42.902Z,25.77
2022-08-28T12:35:18.035Z,25.84
2022-08-28T12:37:54.122Z,26.23
2022-08-28T12:40:24.790Z,26.68
2022-08-28T12:43:09.022Z,27.25
2022-08-28T12:45:52.183Z,27.28
2022-08-28T12:48:31.649Z,27.12
2022-08-28T12:51:09.097Z,26.90
2022-08-28T12:53:42.822Z,26.82
2022-08-28T12:56:17.772Z,26.85
2022-08-28T12:58:46.058Z,26.91
2022-08-28T13:01:20.442Z,26.98
2022-08-28T13:03:53.397Z,27.12
2022-08-28T13:06:29.004Z,27.27
2022-08-28T13:09:18.335Z,27.32
2022-08-28T13:11:49.378Z,27.03
2022-08-28T13:14:46.159Z,26.63
2022-08-28T13:17:15.345Z,26.67
2022-08-28T13:19:42.531Z,26.93
2022-08-28T13:22:34.921Z,27.27
2022-08-28T13:25:05.375Z,27.54
2022-08-28T13:27:32.729Z,27.63
2022-08-28T13:30:33.871Z,27.89
2022-08-28T13:33:22.571Z,27.87
2022-08-28T13:35:50.916Z,27.68
2022-08-28T13:38:21.666Z,27.46
2022-08-28T13:41:02.492Z,27.30
2022-08-28T13:43:45.413Z,27.18
2022-08-28T13:46:13.263Z,27.14
2022-08-28T13:48:40.251Z,27.17
2022-08-28T13:51:12.028Z,27.37
2022-08-28T13:53:46.519Z,27.67
2022-08-28T13:56:13.759Z,27.91
2022-08-28T13:58:40.711Z,27.97
2022-08-28T14:01:07.857Z,27.88
2022-08-28T14:03:38.924Z,27.93
2022-08-28T14:06:16.920Z,28.08
2022-08-28T14:08:45.787Z,28.31
2022-08-28T14:11:15.182Z,28.35
2022-08-28T14:13:46.891Z,28.12
2022-08-28T14:16:23.568Z,27.59
2022-08-28T14:18:52.611Z,27.30
2022-08-28T14:21:19.660Z,27.08
2022-08-28T14:23:46.657Z,26.91
2022-08-28T14:26:13.628Z,26.82
2022-08-28T14:28:40.508Z,26.87
2022-08-28T14:31:11.083Z,27.08
2022-08-28T14:33:41.698Z,27.27
2022-08-28T14:36:21.041Z,27.35
2022-08-28T14:38:53.692Z,27.52
2022-08-28T14:41:25.385Z,27.59
2022-08-28T14:43:54.143Z,27.05
2022-08-28T14:46:24.507Z,26.76
2022-08-28T14:48:51.836Z,26.72
2022-08-28T14:51:19.331Z,26.76
2022-08-28T14:53:46.832Z,26.87
2022-08-28T14:56:13.839Z,26.82
2022-08-28T14:58:40.896Z,26.75
2022-08-28T15:01:07.958Z,26.85
2022-08-28T15:03:35.882Z,26.99
2022-08-28T15:06:09.638Z,26.85
2022-08-28T15:08:37.466Z,26.85
2022-08-28T15:11:18.466Z,26.67
2022-08-28T15:13:48.276Z,26.64
2022-08-28T15:16:29.914Z,26.78
2022-08-28T15:18:58.533Z,26.94
2022-08-28T15:21:38.228Z,27.02
2022-08-28T15:24:06.962Z,26.99
2022-08-28T15:26:34.399Z,27.07
2022-08-28T15:29:04.264Z,27.22
2022-08-28T15:31:41.397Z,27.15
2022-08-28T15:34:16.869Z,26.99
2022-08-28T15:36:45.627Z,26.73
2022-08-28T15:39:41.863Z,26.50
2022-08-28T15:42:10.019Z,26.30
2022-08-28T15:44:37.366Z,26.11
2022-08-28T15:47:07.893Z,25.95
2022-08-28T15:49:43.635Z,25.91
2022-08-28T15:52:14.007Z,25.95
2022-08-28T15:54:41.642Z,25.93
2022-08-28T15:57:08.639Z,25.72
2022-08-28T15:59:40.055Z,25.44
2022-08-28T16:02:16.613Z,25.36
2022-08-28T16:04:43.690Z,25.46
2022-08-28T16:07:11.099Z,25.58
2022-08-28T16:09:38.095Z,25.54
2022-08-28T16:12:05.801Z,25.45
2022-08-28T16:14:33.630Z,25.52
2022-08-28T16:17:05.843Z,25.51
2022-08-28T16:19:41.561Z,25.52
2022-08-28T16:22:11.056Z,25.50
2022-08-28T16:24:38.296Z,25.33
2022-08-28T16:27:06.460Z,25.26
2022-08-28T16:29:37.724Z,25.18
2022-08-28T16:32:05.581Z,25.11
2022-08-28T16:34:33.546Z,25.06
2022-08-28T16:37:01.736Z,24.92
2022-08-28T16:39:29.053Z,24.84
2022-08-28T16:41:56.041Z,24.83
2022-08-28T16:44:27.744Z,24.86
2022-08-28T16:46:55.725Z,24.87
2022-08-28T16:49:23.883Z,24.87
2022-08-28T16:51:51.896Z,24.88
2022-08-28T16:54:20.854Z,24.84
2022-08-28T16:56:48.374Z,24.72
2022-08-28T16:59:18.241Z,24.64
2022-08-28T17:01:45.603Z,24.53
2022-08-28T17:04:20.393Z,24.45
2022-08-28T17:06:47.443Z,24.37
2022-08-28T17:09:14.512Z,24.19
2022-08-28T17:11:41.471Z,24.04
2022-08-28T17:14:10.980Z,23.96
2022-08-28T17:16:38.406Z,23.77
2022-08-28T17:19:05.473Z,23.58
2022-08-28T17:21:51.240Z,23.42
2022-08-28T17:24:18.267Z,23.29
2022-08-28T17:26:45.360Z,23.15
2022-08-28T17:29:12.414Z,23.00
2022-08-28T17:31:39.717Z,22.97
2022-08-28T17:34:10.519Z,22.85
2022-08-28T17:36:41.318Z,22.78
2022-08-28T17:39:13.173Z,22.77
2022-08-28T17:41:41.376Z,22.62
2022-08-28T17:44:08.984Z,22.48
2022-08-28T17:46:37.952Z,22.30
2022-08-28T17:49:07.058Z,22.21
2022-08-28T17:51:43.841Z,22.18
2022-08-28T17:54:18.305Z,22.17
2022-08-28T17:56:46.246Z,22.05
2022-08-28T17:59:14.573Z,21.90
2022-08-28T18:01:43.327Z,21.83
2022-08-28T18:04:11.860Z,21.76
2022-08-28T18:06:39.406Z,21.67
2022-08-28T18:09:08.410Z,21.59
2022-08-28T18:11:36.485Z,21.53
2022-08-28T18:14:04.326Z,21.48
2022-08-28T18:16:33.057Z,21.39
2022-08-28T18:19:01.075Z,21.30
2022-08-28T18:21:28.950Z,21.23
2022-08-28T18:23:56.520Z,21.17
2022-08-28T18:26:23.973Z,21.02
2022-08-28T18:28:51.155Z,20.91
2022-08-28T18:31:18.529Z,20.84
2022-08-28T18:33:46.571Z,20.76
2022-08-28T18:36:14.848Z,20.69
2022-08-28T18:38:43.399Z,20.59
2022-08-28T18:41:12.027Z,20.52
2022-08-28T18:43:39.142Z,20.45
2022-08-28T18:46:09.124Z,20.42
2022-08-28T18:48:38.000Z,20.29
2022-08-28T18:51:11.970Z,20.22
2022-08-28T18:53:43.281Z,20.14
2022-08-28T18:56:12.286Z,20.09
2022-08-28T18:58:40.871Z,20.02
2022-08-28T19:01:09.263Z,19.93
2022-08-28T19:03:36.394Z,19.89
2022-08-28T19:06:04.288Z,19.85
2022-08-28T19:08:32.749Z,19.82
2022-08-28T19:10:59.724Z,19.74
2022-08-28T19:13:27.852Z,19.63
2022-08-28T19:15:54.817Z,19.58
2022-08-28T19:18:21.826Z,19.54
2022-08-28T19:20:48.988Z,19.53
2022-08-28T19:23:17.820Z,19.44
2022-08-28T19:25:45.952Z,19.38
2022-08-28T19:28:14.100Z,19.26
2022-08-28T19:30:41.229Z,19.22
2022-08-28T19:33:08.254Z,19.15
2022-08-28T19:35:35.547Z,19.19
2022-08-28T19:38:02.459Z,19.25
2022-08-28T19:40:30.192Z,19.29
2022-08-28T19:42:57.433Z,19.22
2022-08-28T19:45:24.363Z,19.14
2022-08-28T19:47:52.297Z,19.00
2022-08-28T19:50:19.820Z,18.97
2022-08-28T19:52:47.227Z,18.91
2022-08-28T19:55:22.466Z,18.88
2022-08-28T19:57:49.772Z,18.85
2022-08-28T20:00:25.393Z,18.81
2022-08-28T20:02:52.905Z,18.75
2022-08-28T20:05:21.185Z,18.74
2022-08-28T20:07:49.114Z,18.68
2022-08-28T20:10:17.752Z,18.69
2022-08-28T20:12:47.982Z,18.68
2022-08-28T20:15:18.952Z,18.62
2022-08-28T20:17:50.112Z,18.54
2022-08-28T20:20:21.010Z,18.50
2022-08-28T20:22:48.821Z,18.49
2022-08-28T20:25:21.499Z,18.42
2022-08-28T20:27:48.451Z,18.41
2022-08-28T20:30:15.623Z,18.34
2022-08-28T20:32:42.742Z,18.31
2022-08-28T20:35:12.658Z,18.27
2022-08-28T20:37:45.257Z,18.23
2022-08-28T20:40:18.595Z,18.23
2022-08-28T20:42:46.544Z,18.17
2022-08-28T20:45:15.729Z,18.15
2022-08-28T20:47:43.772Z,18.08
2022-08-28T20:50:11.829Z,17.99
2022-08-28T20:52:39.538Z,17.93
2022-08-28T20:55:08.814Z,17.88
2022-08-28T20:57:36.527Z,17.75
2022-08-28T21:00:12.897Z,17.69
2022-08-28T21:02:40.376Z,17.62
2022-08-28T21:05:07.822Z,17.55
2022-08-28T21:07:38.065Z,17.49
2022-08-28T21:10:07.873Z,17.42
2022-08-28T21:12:37.917Z,17.25
2022-08-28T21:15:08.474Z,17.21
2022-08-28T21:17:35.766Z,17.12
2022-08-28T21:20:10.255Z,17.04
2022-08-28T21:22:37.778Z,16.93
2022-08-28T21:25:07.378Z,16.86
2022-08-28T21:27:35.552Z,16.81
2022-08-28T21:30:04.374Z,16.77
2022-08-28T21:32:33.871Z,16.70
2022-08-28T21:35:03.284Z,16.73
2022-08-28T21:37:31.262Z,16.62
2022-08-28T21:39:59.531Z,16.53
2022-08-28T21:42:28.333Z,16.45
2022-08-28T21:44:55.571Z,16.39
2022-08-28T21:47:24.255Z,16.31
2022-08-28T21:49:54.709Z,16.23
2022-08-28T21:52:25.956Z,16.21
2022-08-28T21:55:04.091Z,16.12
2022-08-28T21:57:31.884Z,16.10
2022-08-28T21:59:59.111Z,16.04
2022-08-28T22:02:26.881Z,15.96
2022-08-28T22:04:54.341Z,15.94
2022-08-28T22:07:21.337Z,15.85
2022-08-28T22:09:48.370Z,15.82
2022-08-28T22:12:16.364Z,15.83
2022-08-28T22:14:43.374Z,15.86
2022-08-28T22:17:11.837Z,15.84
2022-08-28T22:19:40.516Z,15.77
2022-08-28T22:22:27.564Z,15.74
2022-08-28T22:24:54.810Z,15.68
2022-08-28T22:27:22.363Z,15.73
2022-08-28T22:29:49.692Z,15.73
2022-08-28T22:32:16.713Z,15.72
2022-08-28T22:34:46.566Z,15.75
2022-08-28T22:37:14.132Z,15.63
2022-08-28T22:39:42.299Z,15.58
2022-08-28T22:42:09.952Z,15.58
2022-08-28T22:44:37.969Z,15.52
2022-08-28T22:47:06.124Z,15.50
2022-08-28T22:49:33.533Z,15.47
2022-08-28T22:52:03.239Z,15.48
2022-08-28T22:54:33.188Z,15.47
2022-08-28T22:57:00.131Z,15.41
2022-08-28T22:59:27.981Z,15.34
2022-08-28T23:01:54.963Z,15.26
2022-08-28T23:04:21.950Z,15.22
2022-08-28T23:06:49.798Z,15.16
2022-08-28T23:09:16.719Z,15.09
2022-08-28T23:11:43.951Z,15.09
2022-08-28T23:14:10.928Z,15.05
2022-08-28T23:16:38.142Z,15.04
2022-08-28T23:19:09.583Z,14.98
2022-08-28T23:21:43.828Z,14.91
2022-08-28T23:24:13.121Z,14.84
2022-08-28T23:26:40.713Z,14.85
2022-08-28T23:29:08.038Z,14.79
2022-08-28T23:31:35.534Z,14.76
2022-08-28T23:34:03.375Z,14.78
2022-08-28T23:36:32.622Z,14.73
2022-08-28T23:39:04.424Z,14.73
2022-08-28T23:41:33.013Z,14.71
2022-08-28T23:44:01.615Z,14.69
2022-08-28T23:46:30.232Z,14.68
2022-08-28T23:48:57.195Z,14.70
2022-08-28T23:51:24.180Z,14.67
2022-08-28T23:53:52.588Z,14.61
2022-08-28T23:56:19.514Z,14.63
2022-08-28T23:58:46.436Z,14.62
